Time;durP1;ratioP1;P1;durP2;ratioP2;P2;SDS_P1;SDS_P2;PMS_P1;PMS_P2;Temp;Humidity;BMP_temperature;BMP_pressure;BME280_temperature;BME280_humidity;BME280_pressure;Samples;Min_cycle;Max_cycle;Signal;HPM_P1;HPM_P2
2023/06/01 00:00:01;;;;;;;6.07;3.97;;;12.90;99.90;;;;;;5075945;28;20553;-82
2023/06/01 00:02:27;;;;;;;3.93;3.53;;;12.90;99.60;;;;;;5082381;28;20197;-80
2023/06/01 00:04:54;;;;;;;6.90;3.80;;;12.90;99.90;;;;;;5075643;28;20197;-80
2023/06/01 00:07:21;;;;;;;5.93;3.37;;;12.90;99.90;;;;;;5075580;28;20266;-81
2023/06/01 00:09:47;;;;;;;4.93;3.47;;;12.70;99.90;;;;;;5075054;28;20229;-80
2023/06/01 00:12:14;;;;;;;5.20;3.57;;;12.80;99.90;;;;;;5075362;28;20201;-80
2023/06/01 00:14:42;;;;;;;6.90;3.53;;;12.90;99.90;;;;;;5074934;28;20722;-80
2023/06/01 00:17:09;;;;;;;5.27;3.50;;;12.90;99.90;;;;;;5074921;28;20193;-80
2023/06/01 00:19:38;;;;;;;5.50;3.33;;;12.70;99.90;;;;;;5074864;28;20204;-80
2023/06/01 00:22:06;;;;;;;6.10;3.60;;;12.40;99.90;;;;;;5075015;28;20263;-80
2023/06/01 00:24:33;;;;;;;7.93;3.67;;;12.20;99.90;;;;;;5074847;28;20724;-80
2023/06/01 00:27:01;;;;;;;10.53;3.77;;;12.10;99.90;;;;;;5074787;28;20275;-80
2023/06/01 00:29:28;;;;;;;5.30;4.10;;;12.00;99.90;;;;;;5074671;28;20228;-80
2023/06/01 00:31:56;;;;;;;6.03;4.00;;;11.90;99.90;;;;;;5074501;28;20652;-80
2023/06/01 00:34:22;;;;;;;6.83;3.77;;;11.90;99.90;;;;;;5074883;28;20197;-80
2023/06/01 00:36:49;;;;;;;7.57;3.80;;;11.70;99.90;;;;;;5074756;28;20201;-80
2023/06/01 00:39:15;;;;;;;6.73;3.97;;;11.70;99.90;;;;;;5074531;28;20276;-80
2023/06/01 00:41:42;;;;;;;7.80;3.73;;;11.60;99.90;;;;;;5074647;28;20192;-80
2023/06/01 00:44:09;;;;;;;7.03;4.10;;;11.70;99.90;;;;;;5073755;28;20546;-80
2023/06/01 00:46:38;;;;;;;7.07;4.17;;;11.80;99.90;;;;;;5074404;28;20231;-80
2023/06/01 00:49:06;;;;;;;9.27;3.93;;;12.10;99.90;;;;;;5074472;28;20389;-80
2023/06/01 00:51:34;;;;;;;6.50;3.90;;;11.90;99.90;;;;;;5074493;28;20197;-80
2023/06/01 00:54:00;;;;;;;6.07;3.87;;;11.70;99.90;;;;;;5074129;28;20225;-80
2023/06/01 00:56:28;;;;;;;6.40;4.13;;;11.60;99.90;;;;;;5074528;28;20197;-80
2023/06/01 00:58:55;;;;;;;5.57;4.27;;;11.90;99.90;;;;;;5074201;28;20702;-80
2023/06/01 01:01:22;;;;;;;14.47;4.20;;;11.90;99.90;;;;;;5074256;28;20200;-80
2023/06/01 01:03:57;;;;;;;11.17;4.43;;;12.10;99.90;;;;;;5074206;28;20227;-80
2023/06/01 01:06:35;;;;;;;7.90;4.57;;;12.10;99.90;;;;;;5074081;28;20287;-80
2023/06/01 01:09:14;;;;;;;8.07;3.97;;;12.10;99.90;;;;;;5074026;28;20274;-79
2023/06/01 01:11:44;;;;;;;6.40;3.93;;;12.20;99.90;;;;;;5073869;28;20197;-80
2023/06/01 01:14:20;;;;;;;6.60;4.10;;;12.20;99.90;;;;;;5074015;28;20207;-80
2023/06/01 01:16:54;;;;;;;5.00;3.53;;;12.20;99.90;;;;;;5073892;28;20538;-80
2023/06/01 01:19:42;;;;;;;7.17;3.90;;;12.20;99.90;;;;;;5073714;28;20295;-81
2023/06/01 01:22:26;;;;;;;8.30;3.90;;;12.00;99.90;;;;;;5073641;28;20289;-80
2023/06/01 01:25:13;;;;;;;5.47;3.50;;;11.80;99.90;;;;;;5073797;28;20193;-80
2023/06/01 01:27:49;;;;;;;6.87;4.17;;;11.70;99.90;;;;;;5073761;28;20520;-80
2023/06/01 01:30:18;;;;;;;4.90;3.67;;;11.60;99.90;;;;;;5073482;28;20707;-80
2023/06/01 01:32:45;;;;;;;7.80;4.47;;;11.40;99.90;;;;;;5073728;28;20200;-81
2023/06/01 01:35:12;;;;;;;5.00;4.27;;;11.20;99.90;;;;;;5073590;28;20192;-81
2023/06/01 01:37:51;;;;;;;12.03;4.50;;;11.10;99.90;;;;;;5073648;28;20200;-81
2023/06/01 01:40:18;;;;;;;6.43;4.63;;;11.00;99.90;;;;;;5073375;28;20196;-80
2023/06/01 01:42:44;;;;;;;7.03;4.33;;;11.30;99.90;;;;;;5073348;28;20712;-81
2023/06/01 01:45:11;;;;;;;6.97;4.43;;;11.50;99.90;;;;;;5073257;28;20552;-80
2023/06/01 01:47:49;;;;;;;7.17;4.40;;;11.60;99.90;;;;;;5073348;28;20254;-80
2023/06/01 01:50:19;;;;;;;9.20;4.60;;;11.70;99.90;;;;;;5073169;28;20250;-80
2023/06/01 01:52:48;;;;;;;7.80;4.43;;;11.60;99.90;;;;;;5073212;28;20251;-80
2023/06/01 01:55:18;;;;;;;7.83;4.77;;;11.70;99.90;;;;;;5073039;28;20204;-80
2023/06/01 01:57:45;;;;;;;7.93;4.40;;;11.40;99.90;;;;;;5073281;28;20203;-80
2023/06/01 02:00:13;;;;;;;5.77;4.63;;;11.20;99.90;;;;;;5073290;28;20201;-80
2023/06/01 02:02:41;;;;;;;5.10;4.37;;;11.20;99.90;;;;;;5073100;28;20197;-81
2023/06/01 02:05:08;;;;;;;8.00;4.50;;;11.00;99.90;;;;;;5072975;28;20197;-80
2023/06/01 02:07:35;;;;;;;7.77;5.10;;;11.10;99.90;;;;;;5073646;28;20205;-80
2023/06/01 02:10:02;;;;;;;8.07;4.60;;;11.20;99.90;;;;;;5072971;28;20224;-80
2023/06/01 02:12:28;;;;;;;6.10;4.70;;;11.00;99.90;;;;;;5073089;28;20204;-80
2023/06/01 02:14:55;;;;;;;6.30;4.20;;;10.90;99.90;;;;;;5073151;28;20205;-80
2023/06/01 02:17:25;;;;;;;7.90;3.90;;;10.90;99.90;;;;;;5075659;28;20220;-80
2023/06/01 02:19:52;;;;;;;6.23;4.20;;;11.00;99.90;;;;;;5074720;28;20264;-80
2023/06/01 02:22:19;;;;;;;7.17;4.40;;;11.00;99.90;;;;;;5080761;28;20254;-81
2023/06/01 02:24:46;;;;;;;6.27;4.10;;;11.00;99.90;;;;;;5084579;28;20185;-80
2023/06/01 02:27:12;;;;;;;8.03;5.07;;;10.80;99.90;;;;;;5073053;28;20218;-80
2023/06/01 02:29:39;;;;;;;7.23;4.53;;;10.60;99.90;;;;;;5072899;28;20250;-80
2023/06/01 02:32:06;;;;;;;9.67;5.33;;;10.50;99.90;;;;;;5072651;28;20197;-80
2023/06/01 02:34:33;;;;;;;6.77;4.73;;;10.40;99.90;;;;;;5072955;28;20549;-80
2023/06/01 02:37:01;;;;;;;9.10;5.13;;;10.30;99.90;;;;;;5072707;28;20197;-80
2023/06/01 02:39:28;;;;;;;6.17;4.60;;;10.40;99.90;;;;;;5072929;28;20205;-81
2023/06/01 02:41:54;;;;;;;6.67;4.90;;;10.50;99.90;;;;;;5072560;28;20649;-80
2023/06/01 02:44:21;;;;;;;9.50;5.20;;;10.50;99.90;;;;;;5072718;28;20197;-81
2023/06/01 02:46:47;;;;;;;7.20;4.50;;;10.50;99.90;;;;;;5076689;28;20715;-80
2023/06/01 02:49:14;;;;;;;8.07;4.57;;;10.30;99.90;;;;;;5076135;28;20274;-80
2023/06/01 02:51:40;;;;;;;7.70;4.80;;;10.20;99.90;;;;;;5072395;28;20599;-81
2023/06/01 02:54:08;;;;;;;6.87;4.77;;;10.10;99.90;;;;;;5072471;28;20282;-78
2023/06/01 02:56:35;;;;;;;10.07;4.90;;;10.00;99.90;;;;;;5072581;28;20201;-81
2023/06/01 02:59:03;;;;;;;9.03;5.10;;;10.00;99.90;;;;;;5072554;28;20537;-80
2023/06/01 03:01:35;;;;;;;8.47;5.33;;;10.10;99.90;;;;;;5072452;28;20197;-80
2023/06/01 03:04:03;;;;;;;7.00;5.33;;;10.50;99.90;;;;;;5072379;28;20284;-80
2023/06/01 03:06:32;;;;;;;8.57;4.93;;;10.60;99.90;;;;;;5073745;28;20197;-81
2023/06/01 03:08:58;;;;;;;10.10;5.90;;;10.70;99.90;;;;;;5076349;28;20255;-80
2023/06/01 03:11:26;;;;;;;8.53;5.00;;;10.70;99.90;;;;;;5076379;28;20553;-80
2023/06/01 03:13:53;;;;;;;11.53;5.37;;;10.40;99.90;;;;;;5076302;28;20284;-81
2023/06/01 03:16:20;;;;;;;9.10;5.20;;;10.40;99.90;;;;;;5076287;28;20207;-80
2023/06/01 03:18:46;;;;;;;9.33;5.33;;;10.60;99.90;;;;;;5075931;28;20552;-80
2023/06/01 03:21:13;;;;;;;8.33;5.23;;;10.50;99.90;;;;;;5079597;28;20250;-81
2023/06/01 03:23:43;;;;;;;7.67;4.90;;;10.50;99.90;;;;;;5089199;28;20200;-80
2023/06/01 03:26:12;;;;;;;10.90;5.70;;;10.40;99.90;;;;;;5081330;28;20197;-81
2023/06/01 03:28:40;;;;;;;9.03;6.13;;;10.30;99.90;;;;;;5075986;28;20229;-81
2023/06/01 03:31:07;;;;;;;10.33;5.50;;;10.20;99.90;;;;;;5075779;28;20282;-81
2023/06/01 03:33:34;;;;;;;7.67;5.40;;;10.20;99.90;;;;;;5076174;28;20255;-81
2023/06/01 03:36:01;;;;;;;7.37;4.77;;;10.10;99.90;;;;;;5075964;28;20270;-81
2023/06/01 03:38:28;;;;;;;8.87;5.10;;;10.10;99.90;;;;;;5075943;28;20197;-81
2023/06/01 03:40:54;;;;;;;5.87;4.57;;;10.00;99.90;;;;;;5075824;28;20201;-81
2023/06/01 03:43:21;;;;;;;10.47;5.10;;;10.00;99.90;;;;;;5077095;28;20276;-81
2023/06/01 03:45:49;;;;;;;10.23;4.97;;;10.00;99.90;;;;;;5075655;28;20197;-81
2023/06/01 03:48:15;;;;;;;9.67;5.10;;;10.10;99.90;;;;;;5075905;28;20216;-81
2023/06/01 03:50:42;;;;;;;7.73;4.87;;;10.00;99.90;;;;;;5075587;28;20229;-81
2023/06/01 03:53:09;;;;;;;8.30;5.37;;;10.00;99.90;;;;;;5075268;28;20274;-81
2023/06/01 03:55:36;;;;;;;10.60;5.43;;;9.90;99.90;;;;;;5075485;28;20201;-81
2023/06/01 03:58:04;;;;;;;8.37;5.23;;;10.10;99.90;;;;;;5075421;28;20268;-81
2023/06/01 04:00:31;;;;;;;6.67;4.90;;;10.40;99.90;;;;;;5075315;28;20774;-81
2023/06/01 04:03:01;;;;;;;6.40;5.00;;;10.60;99.90;;;;;;5075370;28;20665;-81
2023/06/01 04:05:28;;;;;;;6.80;5.13;;;10.40;99.90;;;;;;5075765;28;20250;-81
2023/06/01 04:07:56;;;;;;;7.07;5.10;;;10.30;99.90;;;;;;5075508;28;20606;-81
2023/06/01 04:10:22;;;;;;;9.03;5.43;;;10.30;99.90;;;;;;5075202;28;20274;-81
2023/06/01 04:12:50;;;;;;;9.70;5.33;;;10.20;99.90;;;;;;5074957;28;20197;-81
2023/06/01 04:15:19;;;;;;;12.37;5.27;;;10.40;99.90;;;;;;5075136;28;20243;-81
2023/06/01 04:17:45;;;;;;;7.83;5.17;;;10.40;99.90;;;;;;5073870;28;20246;-81
2023/06/01 04:20:15;;;;;;;10.07;5.27;;;10.40;99.90;;;;;;5075067;28;20201;-81
2023/06/01 04:22:42;;;;;;;7.23;4.80;;;10.40;99.90;;;;;;5074863;28;20197;-81
2023/06/01 04:25:11;;;;;;;7.63;4.87;;;10.40;99.90;;;;;;5074902;28;20208;-81
2023/06/01 04:27:38;;;;;;;10.43;5.00;;;10.40;99.90;;;;;;5074780;28;20197;-81
2023/06/01 04:30:07;;;;;;;11.27;5.03;;;10.70;99.90;;;;;;5074658;28;20693;-81
2023/06/01 04:32:35;;;;;;;7.63;5.00;;;10.80;99.90;;;;;;5074695;28;20208;-80
2023/06/01 04:35:04;;;;;;;7.63;4.73;;;11.00;99.90;;;;;;5075087;28;20205;-81
2023/06/01 04:37:33;;;;;;;9.30;4.50;;;11.00;99.90;;;;;;5075690;28;20197;-81
2023/06/01 04:40:00;;;;;;;12.20;5.20;;;11.00;99.90;;;;;;5074936;28;20211;-82
2023/06/01 04:42:27;;;;;;;10.17;5.33;;;11.20;99.90;;;;;;5074726;28;20566;-82
2023/06/01 04:44:54;;;;;;;7.47;4.60;;;11.10;99.90;;;;;;5074754;28;20657;-82
2023/06/01 04:47:21;;;;;;;7.53;4.63;;;11.10;99.90;;;;;;5074709;28;20197;-82
2023/06/01 04:49:48;;;;;;;8.77;4.87;;;11.40;99.90;;;;;;5074538;28;20220;-82
2023/06/01 04:52:16;;;;;;;7.93;4.83;;;11.50;99.90;;;;;;5074433;28;20204;-82
2023/06/01 04:54:44;;;;;;;6.33;4.37;;;11.60;99.90;;;;;;5074475;28;20306;-82
2023/06/01 04:57:10;;;;;;;8.43;4.73;;;11.80;99.90;;;;;;5075333;28;20205;-82
2023/06/01 04:59:37;;;;;;;6.27;4.20;;;11.80;99.90;;;;;;5077453;28;20254;-81
2023/06/01 05:02:04;;;;;;;6.80;4.27;;;12.00;99.90;;;;;;5074463;28;20197;-82
2023/06/01 05:04:30;;;;;;;7.23;4.23;;;12.00;99.90;;;;;;5074356;28;20550;-82
2023/06/01 05:06:57;;;;;;;8.60;4.50;;;12.10;99.90;;;;;;5074396;28;20201;-82
2023/06/01 05:09:24;;;;;;;9.53;5.13;;;12.10;99.90;;;;;;5074410;28;20212;-82
2023/06/01 05:11:52;;;;;;;6.80;4.47;;;12.30;99.90;;;;;;5074404;28;20656;-82
2023/06/01 05:14:18;;;;;;;8.27;4.80;;;12.50;99.90;;;;;;5074522;28;20197;-82
2023/06/01 05:16:45;;;;;;;8.20;5.03;;;12.60;99.90;;;;;;5074674;28;20247;-82
2023/06/01 05:19:12;;;;;;;6.33;4.73;;;12.80;99.90;;;;;;5074472;28;20271;-82
2023/06/01 05:21:40;;;;;;;9.67;4.97;;;12.80;99.90;;;;;;5074587;28;20304;-82
2023/06/01 05:24:07;;;;;;;8.70;5.07;;;12.90;99.90;;;;;;5074622;28;20211;-82
2023/06/01 05:26:34;;;;;;;7.20;4.60;;;13.10;99.90;;;;;;5074571;28;20197;-81
2023/06/01 05:29:03;;;;;;;8.37;4.53;;;13.20;99.90;;;;;;5073553;28;20878;-82
2023/06/01 05:31:30;;;;;;;8.40;4.70;;;13.30;99.90;;;;;;5078479;28;20235;-81
2023/06/01 05:33:57;;;;;;;10.50;4.70;;;13.30;99.90;;;;;;5078982;28;20713;-82
2023/06/01 05:36:24;;;;;;;6.97;4.80;;;13.40;99.90;;;;;;5079509;28;20251;-82
2023/06/01 05:38:50;;;;;;;6.73;4.70;;;13.50;99.90;;;;;;5073163;28;20676;-81
2023/06/01 05:41:17;;;;;;;7.93;4.60;;;13.60;99.90;;;;;;5075840;28;20201;-80
2023/06/01 05:43:44;;;;;;;7.97;5.00;;;13.80;99.90;;;;;;5074348;28;20197;-81
2023/06/01 05:46:11;;;;;;;7.83;4.77;;;13.90;99.90;;;;;;5074142;28;20243;-81
2023/06/01 05:48:38;;;;;;;7.73;4.63;;;14.10;99.90;;;;;;5078787;28;20259;-81
2023/06/01 05:51:05;;;;;;;9.63;4.40;;;14.20;99.90;;;;;;5078773;28;20311;-81
2023/06/01 05:53:31;;;;;;;6.40;5.00;;;14.30;99.90;;;;;;5091200;28;20283;-81
2023/06/01 05:55:58;;;;;;;9.33;4.73;;;14.50;99.90;;;;;;5092075;28;20219;-80
2023/06/01 05:58:25;;;;;;;11.97;5.13;;;14.70;99.90;;;;;;5082525;28;20197;-80
2023/06/01 06:00:51;;;;;;;8.30;4.70;;;14.80;99.90;;;;;;5077590;28;20242;-81
2023/06/01 06:03:19;;;;;;;7.50;4.47;;;15.00;99.90;;;;;;5073636;28;20258;-81
2023/06/01 06:05:46;;;;;;;8.30;4.70;;;15.10;99.90;;;;;;5073430;28;20657;-80
2023/06/01 06:08:12;;;;;;;5.55;3.65;;;15.30;99.90;;;;;;5073324;28;20247;-81
2023/06/01 06:10:39;;;;;;;6.03;3.00;;;15.50;99.90;;;;;;5072761;28;20277;-81
2023/06/01 06:13:06;;;;;;;5.90;3.45;;;15.80;99.90;;;;;;5073252;28;20259;-82
2023/06/01 06:15:32;;;;;;;4.05;2.80;;;16.10;99.90;;;;;;5073613;28;20242;-82
2023/06/01 06:17:59;;;;;;;5.70;3.25;;;16.30;99.90;;;;;;5073803;28;20200;-80
2023/06/01 06:20:27;;;;;;;5.38;3.33;;;16.40;99.90;;;;;;5074026;28;20201;-82
2023/06/01 06:22:54;;;;;;;6.90;3.45;;;16.60;99.90;;;;;;5077113;28;20644;-81
2023/06/01 06:25:21;;;;;;;4.95;2.97;;;16.70;99.90;;;;;;5073962;28;20251;-82
2023/06/01 06:27:47;;;;;;;5.30;2.88;;;16.80;99.90;;;;;;5075185;28;20201;-81
2023/06/01 06:30:14;;;;;;;4.38;2.95;;;16.90;99.80;;;;;;5073833;28;20627;-83
2023/06/01 06:32:41;;;;;;;6.55;2.63;;;17.00;99.90;;;;;;5072760;28;20223;-82
2023/06/01 06:35:12;;;;;;;6.03;2.70;;;17.20;99.50;;;;;;5073438;28;20200;-81
2023/06/01 06:37:41;;;;;;;3.50;3.00;;;17.20;97.40;;;;;;5073610;28;20193;-82
2023/06/01 06:40:09;;;;;;;6.45;2.80;;;17.30;96.40;;;;;;5073026;28;20299;-81
2023/06/01 06:42:35;;;;;;;5.22;3.35;;;17.40;96.70;;;;;;5075961;28;20628;-81
2023/06/01 06:45:02;;;;;;;5.57;2.55;;;17.50;94.90;;;;;;5077202;28;20201;-81
2023/06/01 06:47:29;;;;;;;5.22;2.70;;;17.40;94.70;;;;;;5077306;28;20199;-82
2023/06/01 06:49:55;;;;;;;3.67;2.45;;;17.60;94.80;;;;;;5077398;28;20197;-82
2023/06/01 06:52:22;;;;;;;5.25;2.70;;;17.80;93.80;;;;;;5077213;28;20197;-81
2023/06/01 06:54:50;;;;;;;4.32;2.88;;;17.90;93.30;;;;;;5076819;28;20691;-82
2023/06/01 06:57:16;;;;;;;6.35;2.53;;;17.90;92.40;;;;;;5076840;28;20588;-83
2023/06/01 06:59:43;;;;;;;6.28;2.70;;;18.10;93.40;;;;;;5077317;28;20197;-81
2023/06/01 07:02:10;;;;;;;5.70;2.83;;;18.20;92.50;;;;;;5076524;28;20702;-81
2023/06/01 07:04:36;;;;;;;5.43;2.97;;;18.40;90.90;;;;;;5077100;28;20197;-81
2023/06/01 07:07:04;;;;;;;3.83;2.58;;;18.60;90.00;;;;;;5076425;28;20197;-79
2023/06/01 07:09:30;;;;;;;4.75;2.58;;;18.70;89.50;;;;;;5076158;28;20530;-79
2023/06/01 07:11:58;;;;;;;5.05;2.88;;;18.90;88.50;;;;;;5075908;28;20328;-79
2023/06/01 07:14:25;;;;;;;4.03;2.45;;;19.00;87.10;;;;;;5076120;28;20197;-80
2023/06/01 07:16:52;;;;;;;3.60;2.40;;;19.10;87.50;;;;;;5076045;28;20201;-79
2023/06/01 07:19:18;;;;;;;3.47;2.80;;;19.20;87.20;;;;;;5074625;28;20250;-81
2023/06/01 07:21:45;;;;;;;3.17;2.70;;;19.30;87.10;;;;;;5075881;28;20243;-83
2023/06/01 07:24:11;;;;;;;3.58;2.55;;;19.30;84.70;;;;;;5077002;28;20197;-85
2023/06/01 07:26:38;;;;;;;6.18;2.30;;;19.40;84.10;;;;;;5079581;28;20200;-86
2023/06/01 07:29:06;;;;;;;4.20;2.78;;;19.50;84.00;;;;;;5076734;28;20200;-84
2023/06/01 07:31:34;;;;;;;7.10;2.42;;;19.70;83.00;;;;;;5076375;28;20716;-81
2023/06/01 07:34:01;;;;;;;3.00;2.70;;;19.80;81.10;;;;;;5076094;28;20201;-85
2023/06/01 07:36:28;;;;;;;4.60;2.63;;;19.80;79.30;;;;;;5075840;28;20204;-80
2023/06/01 07:38:54;;;;;;;4.50;2.53;;;20.00;79.50;;;;;;5075655;28;20196;-81
2023/06/01 07:41:21;;;;;;;4.03;2.80;;;20.10;79.70;;;;;;5076383;28;20197;-81
2023/06/01 07:43:48;;;;;;;4.75;2.40;;;20.20;77.40;;;;;;5076534;28;20205;-85
2023/06/01 07:46:16;;;;;;;5.38;2.78;;;20.30;76.50;;;;;;5076349;28;20778;-84
2023/06/01 07:48:42;;;;;;;5.53;2.42;;;20.50;73.90;;;;;;5076127;28;20193;-83
2023/06/01 07:51:09;;;;;;;6.13;2.58;;;20.60;74.40;;;;;;5076463;28;20266;-82
2023/06/01 07:53:36;;;;;;;2.95;2.45;;;20.80;72.70;;;;;;5077946;28;20232;-84
2023/06/01 07:56:03;;;;;;;2.95;2.58;;;21.10;71.20;;;;;;5075878;28;20193;-81
2023/06/01 07:58:30;;;;;;;4.57;3.00;;;21.00;69.40;;;;;;5076079;28;20254;-80
2023/06/01 08:00:57;;;;;;;5.25;2.60;;;21.30;70.80;;;;;;5075230;28;20204;-80
2023/06/01 08:03:25;;;;;;;6.18;2.70;;;21.50;64.80;;;;;;5075449;28;20197;-89
2023/06/01 08:05:57;;;;;;;4.03;2.60;;;21.60;61.50;;;;;;5076500;28;20193;-82
2023/06/01 08:08:23;;;;;;;4.88;2.55;;;21.80;62.00;;;;;;5075777;28;20201;-78
2023/06/01 08:10:51;;;;;;;2.85;2.47;;;22.10;60.20;;;;;;5075097;28;20228;-79
2023/06/01 08:13:18;;;;;;;3.53;2.72;;;22.40;59.70;;;;;;5074993;28;20201;-81
2023/06/01 08:15:47;;;;;;;2.83;2.58;;;22.60;59.10;;;;;;5074728;28;20223;-79
2023/06/01 08:18:13;;;;;;;5.47;2.80;;;22.60;55.90;;;;;;5074851;28;20223;-78
2023/06/01 08:20:41;;;;;;;3.80;2.92;;;22.80;55.50;;;;;;5074697;28;20223;-79
2023/06/01 08:23:08;;;;;;;3.47;2.70;;;23.10;55.60;;;;;;5074755;28;20223;-78
2023/06/01 08:25:35;;;;;;;6.28;3.03;;;23.00;54.50;;;;;;5074985;28;20201;-79
2023/06/01 08:28:02;;;;;;;6.75;2.90;;;23.20;52.60;;;;;;5074759;28;20304;-79
2023/06/01 08:30:29;;;;;;;7.38;3.20;;;23.30;51.30;;;;;;5074463;28;20229;-79
2023/06/01 08:32:56;;;;;;;8.32;2.90;;;23.50;52.10;;;;;;5074178;28;20653;-78
2023/06/01 08:35:23;;;;;;;4.50;3.08;;;23.70;50.70;;;;;;5074365;28;20271;-79
2023/06/01 08:37:50;;;;;;;6.70;2.90;;;23.90;48.40;;;;;;5074405;28;20656;-79
2023/06/01 08:40:17;;;;;;;4.03;2.92;;;24.00;47.10;;;;;;5074285;28;20250;-79
2023/06/01 08:42:50;;;;;;;5.38;2.90;;;24.10;47.50;;;;;;5074311;28;20193;-79
2023/06/01 08:45:18;;;;;;;3.25;2.70;;;24.30;47.30;;;;;;5074345;28;20200;-79
2023/06/01 08:47:47;;;;;;;4.75;2.70;;;24.20;47.00;;;;;;5074323;28;20274;-79
2023/06/01 08:50:15;;;;;;;6.55;3.10;;;24.50;46.70;;;;;;5074486;28;20218;-79
2023/06/01 08:52:46;;;;;;;4.45;2.90;;;24.30;43.50;;;;;;5074293;28;20205;-78
2023/06/01 08:55:15;;;;;;;3.97;2.80;;;24.40;45.60;;;;;;5074305;28;20222;-79
2023/06/01 08:57:42;;;;;;;5.60;2.97;;;25.00;42.60;;;;;;5073966;28;20711;-77
2023/06/01 09:00:09;;;;;;;6.03;3.00;;;25.20;42.20;;;;;;5073944;28;20276;-76
2023/06/01 09:02:36;;;;;;;4.25;3.03;;;24.70;39.40;;;;;;5074026;28;20245;-72
2023/06/01 09:05:03;;;;;;;3.22;2.90;;;24.70;38.50;;;;;;5073126;28;20644;-77
2023/06/01 09:07:31;;;;;;;4.63;2.60;;;24.20;39.50;;;;;;5074119;28;20224;-76
2023/06/01 09:09:58;;;;;;;5.72;2.55;;;25.20;39.00;;;;;;5073439;28;20196;-76
2023/06/01 09:12:28;;;;;;;5.65;2.85;;;25.50;35.90;;;;;;5073582;28;20220;-76
2023/06/01 09:15:09;;;;;;;5.80;2.75;;;25.70;35.70;;;;;;5073660;28;20230;-79
2023/06/01 09:17:36;;;;;;;4.00;2.67;;;25.60;31.90;;;;;;5073585;28;20238;-78
2023/06/01 09:20:04;;;;;;;4.30;2.70;;;25.00;34.30;;;;;;5073823;28;20196;-79
2023/06/01 09:22:40;;;;;;;6.30;2.92;;;25.30;34.30;;;;;;5073554;28;20207;-79
2023/06/01 09:25:07;;;;;;;5.93;2.35;;;26.00;30.70;;;;;;5073832;28;20203;-79
2023/06/01 09:27:45;;;;;;;4.72;2.35;;;26.40;30.00;;;;;;5073696;28;20207;-78
2023/06/01 09:30:13;;;;;;;4.80;2.47;;;25.70;29.80;;;;;;5080744;28;20759;-78
2023/06/01 09:32:39;;;;;;;4.68;2.58;;;25.40;29.30;;;;;;5073280;28;20623;-78
2023/06/01 09:35:07;;;;;;;3.88;2.90;;;25.70;29.20;;;;;;5073191;28;20204;-78
2023/06/01 09:37:35;;;;;;;3.90;2.38;;;24.70;28.00;;;;;;5073188;28;20239;-78
2023/06/01 09:40:03;;;;;;;5.43;2.78;;;25.20;29.20;;;;;;5073389;28;20234;-79
2023/06/01 09:42:32;;;;;;;3.80;2.40;;;26.30;26.80;;;;;;5073221;28;20287;-80
2023/06/01 09:45:15;;;;;;;3.20;2.47;;;26.70;25.30;;;;;;5073247;28;20196;-81
2023/06/01 09:47:42;;;;;;;4.07;2.72;;;26.80;25.70;;;;;;5073782;28;20197;-78
2023/06/01 09:50:09;;;;;;;3.67;2.65;;;26.20;27.60;;;;;;5072839;28;20201;-72
2023/06/01 09:52:35;;;;;;;3.90;2.50;;;26.20;26.50;;;;;;5073175;28;20228;-73
2023/06/01 09:55:07;;;;;;;3.05;2.50;;;26.60;26.90;;;;;;5072720;28;20233;-72
2023/06/01 09:57:34;;;;;;;4.55;2.65;;;27.20;25.70;;;;;;5073135;28;20270;-74
2023/06/01 10:00:05;;;;;;;4.38;2.55;;;27.40;23.70;;;;;;5071952;28;20201;-73
2023/06/01 10:02:34;;;;;;;2.95;2.47;;;27.30;25.00;;;;;;5073083;28;20255;-73
2023/06/01 10:05:01;;;;;;;4.57;2.40;;;28.50;25.10;;;;;;5072893;28;20204;-73
2023/06/01 10:07:29;;;;;;;5.22;2.55;;;28.90;22.80;;;;;;5073135;28;20197;-73
2023/06/01 10:09:58;;;;;;;2.50;2.13;;;29.10;20.80;;;;;;5072821;28;20204;-73
2023/06/01 10:12:25;;;;;;;3.75;2.50;;;29.10;20.00;;;;;;5072716;28;20266;-73
2023/06/01 10:14:52;;;;;;;2.55;2.20;;;27.30;21.70;;;;;;5072688;28;20208;-73
2023/06/01 10:17:21;;;;;;;4.15;2.47;;;28.20;22.40;;;;;;5071718;28;20197;-73
2023/06/01 10:19:48;;;;;;;7.95;2.90;;;28.80;22.40;;;;;;5072946;28;20192;-73
2023/06/01 10:22:15;;;;;;;3.90;2.25;;;28.60;23.00;;;;;;5072715;28;20209;-73
2023/06/01 10:24:43;;;;;;;2.78;2.47;;;27.80;22.80;;;;;;5072776;28;20239;-73
2023/06/01 10:27:17;;;;;;;2.85;2.35;;;28.60;23.80;;;;;;5072698;28;20242;-73
2023/06/01 10:29:44;;;;;;;6.20;2.58;;;30.00;22.40;;;;;;5072649;28;20213;-73
2023/06/01 10:32:43;;;;;;;6.25;2.42;;;30.70;21.30;;;;;;5072893;28;20220;-74
2023/06/01 10:35:11;;;;;;;4.80;2.53;;;31.50;20.00;;;;;;5072732;28;20258;-74
2023/06/01 10:37:38;;;;;;;3.30;2.33;;;32.00;19.60;;;;;;5072647;28;20197;-74
2023/06/01 10:40:21;;;;;;;3.17;2.50;;;32.20;19.10;;;;;;5072525;28;20192;-74
2023/06/01 10:42:49;;;;;;;5.88;2.45;;;32.90;18.30;;;;;;5072816;28;20204;-74
2023/06/01 10:45:38;;;;;;;3.38;2.90;;;32.60;17.70;;;;;;5072703;28;20207;-74
2023/06/01 10:48:07;;;;;;;3.15;2.38;;;33.10;18.00;;;;;;5072280;28;20192;-74
2023/06/01 10:50:35;;;;;;;4.32;2.53;;;32.00;17.50;;;;;;5072353;28;20196;-74
2023/06/01 10:53:27;;;;;;;4.45;2.50;;;32.70;17.70;;;;;;5072488;28;20257;-75
2023/06/01 10:56:19;;;;;;;4.22;2.20;;;33.00;17.00;;;;;;5072660;28;20317;-74
2023/06/01 10:58:46;;;;;;;3.30;2.28;;;33.30;16.60;;;;;;5072503;28;20193;-74
2023/06/01 11:01:20;;;;;;;6.20;2.40;;;34.20;15.90;;;;;;5072454;28;20656;-75
2023/06/01 11:03:50;;;;;;;4.05;2.28;;;35.60;15.00;;;;;;5072481;28;20200;-75
2023/06/01 11:06:27;;;;;;;4.38;2.47;;;35.00;14.00;;;;;;5072546;28;20563;-75
2023/06/01 11:08:57;;;;;;;4.35;2.20;;;35.50;13.70;;;;;;5072326;28;20200;-75
2023/06/01 11:11:25;;;;;;;4.40;2.30;;;34.30;13.60;;;;;;5072228;28;20579;-75
2023/06/01 11:14:09;;;;;;;3.85;2.20;;;33.20;14.00;;;;;;5072554;28;20200;-74
2023/06/01 11:16:36;;;;;;;4.53;2.47;;;33.50;14.90;;;;;;5072392;28;20228;-74
2023/06/01 11:19:06;;;;;;;3.22;2.28;;;33.90;15.10;;;;;;5072019;28;20228;-75
2023/06/01 11:21:36;;;;;;;5.78;2.50;;;34.00;14.80;;;;;;5071990;28;20201;-75
2023/06/01 11:24:07;;;;;;;5.10;2.70;;;33.80;14.90;;;;;;5072068;28;20291;-75
2023/06/01 11:26:37;;;;;;;4.63;2.55;;;34.10;14.80;;;;;;5072475;28;20197;-75
2023/06/01 11:29:06;;;;;;;5.45;2.88;;;34.70;14.20;;;;;;5075614;28;20603;-75
2023/06/01 11:31:37;;;;;;;3.33;2.47;;;35.50;14.40;;;;;;5075668;28;20258;-75
2023/06/01 11:34:05;;;;;;;3.25;2.50;;;34.90;14.80;;;;;;5075693;28;20208;-75
2023/06/01 11:36:37;;;;;;;3.22;2.25;;;34.50;14.00;;;;;;5075636;28;20262;-75
2023/06/01 11:39:07;;;;;;;3.45;2.35;;;35.40;14.10;;;;;;5075917;28;20538;-75
2023/06/01 11:41:35;;;;;;;4.55;2.67;;;35.80;13.60;;;;;;5075715;28;20207;-75
2023/06/01 11:44:02;;;;;;;6.55;2.50;;;36.10;13.10;;;;;;5075740;28;20250;-75
2023/06/01 11:46:28;;;;;;;5.55;2.60;;;36.10;13.60;;;;;;5075659;28;20200;-75
2023/06/01 11:49:04;;;;;;;3.10;2.78;;;36.10;13.10;;;;;;5075419;28;20254;-75
2023/06/01 11:51:33;;;;;;;4.40;3.00;;;35.40;13.50;;;;;;5075367;28;20235;-75
2023/06/01 11:54:01;;;;;;;6.55;2.60;;;35.30;12.90;;;;;;5075267;28;20565;-74
2023/06/01 11:56:30;;;;;;;6.97;2.70;;;33.00;14.40;;;;;;5075523;28;20250;-75
2023/06/01 11:58:59;;;;;;;3.22;2.58;;;34.70;14.50;;;;;;5075382;28;20196;-75
2023/06/01 12:01:26;;;;;;;4.18;2.63;;;34.10;13.50;;;;;;5075308;28;20203;-75
2023/06/01 12:03:53;;;;;;;3.33;2.70;;;34.30;13.90;;;;;;5075440;28;20200;-73
2023/06/01 12:06:20;;;;;;;4.85;2.83;;;34.70;13.70;;;;;;5075333;28;20204;-73
2023/06/01 12:08:50;;;;;;;4.78;2.55;;;35.50;13.40;;;;;;5075277;28;20193;-75
2023/06/01 12:11:21;;;;;;;4.53;2.08;;;35.80;11.30;;;;;;5075191;28;20200;-73
2023/06/01 12:13:48;;;;;;;5.65;2.38;;;36.60;11.90;;;;;;5074948;28;20546;-73
2023/06/01 12:16:16;;;;;;;3.88;2.67;;;37.50;11.70;;;;;;5074901;28;20197;-73
2023/06/01 12:18:43;;;;;;;7.28;2.47;;;38.00;11.40;;;;;;5075184;28;20224;-73
2023/06/01 12:21:10;;;;;;;3.00;2.40;;;38.10;11.10;;;;;;5075094;28;20201;-74
2023/06/01 12:23:37;;;;;;;3.88;3.05;;;37.50;10.70;;;;;;5074967;28;20560;-73
2023/06/01 12:26:06;;;;;;;3.03;2.70;;;37.90;10.90;;;;;;5074888;28;20192;-73
2023/06/01 12:28:48;;;;;;;5.72;3.00;;;38.10;10.80;;;;;;5074776;28;20204;-73
2023/06/01 12:31:17;;;;;;;4.63;2.67;;;38.40;10.70;;;;;;5074964;28;20292;-74
2023/06/01 12:33:45;;;;;;;4.72;2.60;;;38.90;10.30;;;;;;5074797;28;20595;-73
2023/06/01 12:36:28;;;;;;;5.07;2.78;;;37.60;10.90;;;;;;5074823;28;20196;-73
2023/06/01 12:38:54;;;;;;;3.90;2.63;;;38.00;10.60;;;;;;5073609;28;20559;-74
2023/06/01 12:41:23;;;;;;;5.50;2.83;;;38.20;10.40;;;;;;5074609;28;20598;-74
2023/06/01 12:43:50;;;;;;;3.63;2.90;;;38.10;9.90;;;;;;5074402;28;20239;-74
2023/06/01 12:46:20;;;;;;;7.60;3.10;;;36.70;11.60;;;;;;5074494;28;20222;-74
2023/06/01 12:48:47;;;;;;;3.35;2.50;;;37.70;11.30;;;;;;5074264;28;20199;-73
2023/06/01 12:51:14;;;;;;;4.55;2.45;;;38.30;10.60;;;;;;5074226;28;20736;-73